sensor_id;sensor_type;location;lat;lon;timestamp;P1;durP1;ratioP1;P2;durP2;ratioP2
990;SDS011;484;48.128;11.602;2023-02-16T00:00:48;6.07;;;5.53;;
990;SDS011;484;48.128;11.602;2023-02-16T00:03:33;6.80;;;6.20;;
990;SDS011;484;48.128;11.602;2023-02-16T00:06:18;7.70;;;5.43;;
990;SDS011;484;48.128;11.602;2023-02-16T00:09:06;6.60;;;5.00;;
990;SDS011;484;48.128;11.602;2023-02-16T00:11:51;6.03;;;5.43;;
990;SDS011;484;48.128;11.602;2023-02-16T00:14:54;5.57;;;5.10;;
990;SDS011;484;48.128;11.602;2023-02-16T00:17:40;6.20;;;5.90;;
990;SDS011;484;48.128;11.602;2023-02-16T00:20:25;5.53;;;5.13;;
990;SDS011;484;48.128;11.602;2023-02-16T00:23:12;7.43;;;6.47;;
990;SDS011;484;48.128;11.602;2023-02-16T00:25:59;7.13;;;6.43;;
990;SDS011;484;48.128;11.602;2023-02-16T00:28:45;7.43;;;6.77;;
990;SDS011;484;48.128;11.602;2023-02-16T00:31:30;7.27;;;6.27;;
990;SDS011;484;48.128;11.602;2023-02-16T00:34:26;6.40;;;5.77;;
990;SDS011;484;48.128;11.602;2023-02-16T00:37:13;7.30;;;6.07;;
990;SDS011;484;48.128;11.602;2023-02-16T00:39:58;10.80;;;8.33;;
990;SDS011;484;48.128;11.602;2023-02-16T00:42:45;7.60;;;6.80;;
990;SDS011;484;48.128;11.602;2023-02-16T00:45:31;11.47;;;8.57;;
990;SDS011;484;48.128;11.602;2023-02-16T00:48:18;6.70;;;5.43;;
990;SDS011;484;48.128;11.602;2023-02-16T00:51:04;4.70;;;4.40;;
990;SDS011;484;48.128;11.602;2023-02-16T00:53:49;6.57;;;5.60;;
990;SDS011;484;48.128;11.602;2023-02-16T00:56:34;14.80;;;8.37;;
990;SDS011;484;48.128;11.602;2023-02-16T00:59:21;6.40;;;5.03;;
990;SDS011;484;48.128;11.602;2023-02-16T01:02:07;7.50;;;5.30;;
990;SDS011;484;48.128;11.602;2023-02-16T01:04:52;7.60;;;7.00;;
990;SDS011;484;48.128;11.602;2023-02-16T01:07:38;8.17;;;6.40;;
990;SDS011;484;48.128;11.602;2023-02-16T01:10:41;5.23;;;4.40;;
990;SDS011;484;48.128;11.602;2023-02-16T01:13:46;6.13;;;5.13;;
990;SDS011;484;48.128;11.602;2023-02-16T01:16:35;6.23;;;5.63;;
990;SDS011;484;48.128;11.602;2023-02-16T01:19:22;7.93;;;5.33;;
990;SDS011;484;48.128;11.602;2023-02-16T01:22:07;6.47;;;4.37;;
990;SDS011;484;48.128;11.602;2023-02-16T01:24:52;4.67;;;4.27;;
990;SDS011;484;48.128;11.602;2023-02-16T01:27:38;4.93;;;4.37;;
990;SDS011;484;48.128;11.602;2023-02-16T01:30:24;3.40;;;3.20;;
990;SDS011;484;48.128;11.602;2023-02-16T01:33:11;3.20;;;2.90;;
990;SDS011;484;48.128;11.602;2023-02-16T01:35:56;11.20;;;6.53;;
990;SDS011;484;48.128;11.602;2023-02-16T01:38:42;4.60;;;4.20;;
990;SDS011;484;48.128;11.602;2023-02-16T01:41:31;4.43;;;3.90;;
990;SDS011;484;48.128;11.602;2023-02-16T01:44:26;3.37;;;3.20;;
990;SDS011;484;48.128;11.602;2023-02-16T01:47:16;3.77;;;3.50;;
990;SDS011;484;48.128;11.602;2023-02-16T01:50:15;4.03;;;3.77;;
990;SDS011;484;48.128;11.602;2023-02-16T01:53:03;3.47;;;3.20;;
990;SDS011;484;48.128;11.602;2023-02-16T01:55:53;5.57;;;5.13;;
990;SDS011;484;48.128;11.602;2023-02-16T01:58:44;15.20;;;6.30;;
990;SDS011;484;48.128;11.602;2023-02-16T02:01:35;4.00;;;3.67;;
990;SDS011;484;48.128;11.602;2023-02-16T02:04:24;6.47;;;6.07;;
990;SDS011;484;48.128;11.602;2023-02-16T02:07:31;6.67;;;4.37;;
990;SDS011;484;48.128;11.602;2023-02-16T02:10:20;6.53;;;6.00;;
990;SDS011;484;48.128;11.602;2023-02-16T02:13:10;8.27;;;7.20;;
990;SDS011;484;48.128;11.602;2023-02-16T02:15:59;14.77;;;6.83;;
990;SDS011;484;48.128;11.602;2023-02-16T02:18:45;5.10;;;4.67;;
990;SDS011;484;48.128;11.602;2023-02-16T02:21:45;7.87;;;6.00;;
990;SDS011;484;48.128;11.602;2023-02-16T02:28:13;11.17;;;6.30;;
990;SDS011;484;48.128;11.602;2023-02-16T02:31:04;7.43;;;6.50;;
990;SDS011;484;48.128;11.602;2023-02-16T02:33:53;7.20;;;6.50;;
990;SDS011;484;48.128;11.602;2023-02-16T02:36:44;7.27;;;6.63;;
990;SDS011;484;48.128;11.602;2023-02-16T02:39:37;10.23;;;6.93;;
990;SDS011;484;48.128;11.602;2023-02-16T02:42:28;5.23;;;4.70;;
990;SDS011;484;48.128;11.602;2023-02-16T02:45:20;4.40;;;4.00;;
990;SDS011;484;48.128;11.602;2023-02-16T02:48:07;7.33;;;4.80;;
990;SDS011;484;48.128;11.602;2023-02-16T02:50:53;6.73;;;6.10;;
990;SDS011;484;48.128;11.602;2023-02-16T02:53:59;9.80;;;6.77;;
990;SDS011;484;48.128;11.602;2023-02-16T02:57:05;4.17;;;3.47;;
990;SDS011;484;48.128;11.602;2023-02-16T03:00:11;8.63;;;4.90;;
990;SDS011;484;48.128;11.602;2023-02-16T03:03:18;5.60;;;5.10;;
990;SDS011;484;48.128;11.602;2023-02-16T03:06:14;4.50;;;4.10;;
990;SDS011;484;48.128;11.602;2023-02-16T03:09:03;5.10;;;4.60;;
990;SDS011;484;48.128;11.602;2023-02-16T03:11:51;5.10;;;3.70;;
990;SDS011;484;48.128;11.602;2023-02-16T03:14:55;10.33;;;6.50;;
990;SDS011;484;48.128;11.602;2023-02-16T03:17:42;4.67;;;4.23;;
990;SDS011;484;48.128;11.602;2023-02-16T03:20:47;5.70;;;5.20;;
990;SDS011;484;48.128;11.602;2023-02-16T03:23:50;7.73;;;6.27;;
990;SDS011;484;48.128;11.602;2023-02-16T03:26:53;5.90;;;5.40;;
990;SDS011;484;48.128;11.602;2023-02-16T03:29:57;5.97;;;5.67;;
990;SDS011;484;48.128;11.602;2023-02-16T03:32:43;6.70;;;5.70;;
990;SDS011;484;48.128;11.602;2023-02-16T03:35:29;4.07;;;3.67;;
990;SDS011;484;48.128;11.602;2023-02-16T03:38:16;10.03;;;5.67;;
990;SDS011;484;48.128;11.602;2023-02-16T03:41:01;5.37;;;4.20;;
990;SDS011;484;48.128;11.602;2023-02-16T03:43:47;4.83;;;4.40;;
990;SDS011;484;48.128;11.602;2023-02-16T03:46:33;4.47;;;4.17;;
990;SDS011;484;48.128;11.602;2023-02-16T03:49:18;17.03;;;5.10;;
990;SDS011;484;48.128;11.602;2023-02-16T03:52:04;27.90;;;5.60;;
990;SDS011;484;48.128;11.602;2023-02-16T03:54:51;4.70;;;4.20;;
990;SDS011;484;48.128;11.602;2023-02-16T03:57:36;5.43;;;5.13;;
990;SDS011;484;48.128;11.602;2023-02-16T04:00:21;7.73;;;7.00;;
990;SDS011;484;48.128;11.602;2023-02-16T04:03:07;6.10;;;3.97;;
990;SDS011;484;48.128;11.602;2023-02-16T04:05:54;7.50;;;5.77;;
990;SDS011;484;48.128;11.602;2023-02-16T04:08:40;4.73;;;4.23;;
990;SDS011;484;48.128;11.602;2023-02-16T04:11:26;5.03;;;4.53;;
990;SDS011;484;48.128;11.602;2023-02-16T04:14:29;6.90;;;4.53;;
990;SDS011;484;48.128;11.602;2023-02-16T04:17:15;3.83;;;3.40;;
990;SDS011;484;48.128;11.602;2023-02-16T04:20:00;5.90;;;5.30;;
990;SDS011;484;48.128;11.602;2023-02-16T04:22:45;5.40;;;4.23;;
990;SDS011;484;48.128;11.602;2023-02-16T04:25:31;6.63;;;6.03;;
990;SDS011;484;48.128;11.602;2023-02-16T04:28:18;5.13;;;4.53;;
990;SDS011;484;48.128;11.602;2023-02-16T04:31:04;9.43;;;4.87;;
990;SDS011;484;48.128;11.602;2023-02-16T04:33:50;3.27;;;3.03;;
990;SDS011;484;48.128;11.602;2023-02-16T04:36:35;7.30;;;5.23;;
990;SDS011;484;48.128;11.602;2023-02-16T04:39:20;5.60;;;3.60;;
990;SDS011;484;48.128;11.602;2023-02-16T04:42:05;4.53;;;4.13;;
990;SDS011;484;48.128;11.602;2023-02-16T04:44:52;7.10;;;6.47;;
990;SDS011;484;48.128;11.602;2023-02-16T04:47:37;5.50;;;4.40;;
990;SDS011;484;48.128;11.602;2023-02-16T04:50:23;4.47;;;3.57;;
990;SDS011;484;48.128;11.602;2023-02-16T04:53:08;5.37;;;4.87;;
990;SDS011;484;48.128;11.602;2023-02-16T04:55:54;3.60;;;3.30;;
990;SDS011;484;48.128;11.602;2023-02-16T04:58:39;4.80;;;3.00;;
990;SDS011;484;48.128;11.602;2023-02-16T05:01:26;5.07;;;4.50;;
990;SDS011;484;48.128;11.602;2023-02-16T05:04:11;9.50;;;5.97;;
990;SDS011;484;48.128;11.602;2023-02-16T05:06:56;5.70;;;3.70;;
990;SDS011;484;48.128;11.602;2023-02-16T05:09:42;4.67;;;3.97;;
990;SDS011;484;48.128;11.602;2023-02-16T05:12:27;4.57;;;2.87;;
990;SDS011;484;48.128;11.602;2023-02-16T05:15:30;3.07;;;2.87;;
990;SDS011;484;48.128;11.602;2023-02-16T05:18:16;3.23;;;2.83;;
990;SDS011;484;48.128;11.602;2023-02-16T05:21:02;3.20;;;3.00;;
990;SDS011;484;48.128;11.602;2023-02-16T05:24:06;3.50;;;3.20;;
990;SDS011;484;48.128;11.602;2023-02-16T05:26:52;6.20;;;5.70;;
990;SDS011;484;48.128;11.602;2023-02-16T05:29:38;5.43;;;3.33;;
990;SDS011;484;48.128;11.602;2023-02-16T05:32:23;3.30;;;2.57;;
990;SDS011;484;48.128;11.602;2023-02-16T05:35:10;2.97;;;2.63;;
990;SDS011;484;48.128;11.602;2023-02-16T05:37:55;5.20;;;4.60;;
990;SDS011;484;48.128;11.602;2023-02-16T05:40:41;4.40;;;3.57;;
990;SDS011;484;48.128;11.602;2023-02-16T05:43:26;5.70;;;3.30;;
990;SDS011;484;48.128;11.602;2023-02-16T05:46:11;5.43;;;3.50;;
990;SDS011;484;48.128;11.602;2023-02-16T05:48:57;2.03;;;1.93;;
990;SDS011;484;48.128;11.602;2023-02-16T05:51:44;2.57;;;2.37;;
990;SDS011;484;48.128;11.602;2023-02-16T05:54:29;3.13;;;2.70;;
990;SDS011;484;48.128;11.602;2023-02-16T05:57:14;3.93;;;2.97;;
990;SDS011;484;48.128;11.602;2023-02-16T06:00:00;1.90;;;1.80;;
990;SDS011;484;48.128;11.602;2023-02-16T06:02:46;4.43;;;3.77;;
990;SDS011;484;48.128;11.602;2023-02-16T06:05:31;3.90;;;2.77;;
990;SDS011;484;48.128;11.602;2023-02-16T06:08:18;4.37;;;3.93;;
990;SDS011;484;48.128;11.602;2023-02-16T06:11:03;3.27;;;2.70;;
990;SDS011;484;48.128;11.602;2023-02-16T06:14:10;2.87;;;2.63;;
990;SDS011;484;48.128;11.602;2023-02-16T06:16:56;2.80;;;2.60;;
990;SDS011;484;48.128;11.602;2023-02-16T06:19:41;5.00;;;4.20;;
990;SDS011;484;48.128;11.602;2023-02-16T06:22:27;3.83;;;3.50;;
990;SDS011;484;48.128;11.602;2023-02-16T06:25:13;2.70;;;2.50;;
990;SDS011;484;48.128;11.602;2023-02-16T06:27:59;2.57;;;2.37;;
990;SDS011;484;48.128;11.602;2023-02-16T06:30:44;3.37;;;2.93;;
990;SDS011;484;48.128;11.602;2023-02-16T06:33:33;1.83;;;1.73;;
990;SDS011;484;48.128;11.602;2023-02-16T06:36:18;1.63;;;1.53;;
990;SDS011;484;48.128;11.602;2023-02-16T06:39:04;3.50;;;2.83;;
990;SDS011;484;48.128;11.602;2023-02-16T06:41:50;4.17;;;3.67;;
990;SDS011;484;48.128;11.602;2023-02-16T06:44:36;5.33;;;3.17;;
990;SDS011;484;48.128;11.602;2023-02-16T06:47:27;3.50;;;2.37;;
990;SDS011;484;48.128;11.602;2023-02-16T06:50:13;3.27;;;3.07;;
990;SDS011;484;48.128;11.602;2023-02-16T06:53:00;2.07;;;1.97;;
990;SDS011;484;48.128;11.602;2023-02-16T06:55:45;2.87;;;2.67;;
990;SDS011;484;48.128;11.602;2023-02-16T06:58:33;4.93;;;4.33;;
990;SDS011;484;48.128;11.602;2023-02-16T07:01:19;3.77;;;3.33;;
990;SDS011;484;48.128;11.602;2023-02-16T07:04:08;2.57;;;2.43;;
990;SDS011;484;48.128;11.602;2023-02-16T07:06:53;5.23;;;3.73;;
990;SDS011;484;48.128;11.602;2023-02-16T07:09:38;5.43;;;4.23;;
990;SDS011;484;48.128;11.602;2023-02-16T07:12:26;4.83;;;3.83;;
990;SDS011;484;48.128;11.602;2023-02-16T07:15:12;4.67;;;4.27;;
990;SDS011;484;48.128;11.602;2023-02-16T07:18:00;4.07;;;3.27;;
990;SDS011;484;48.128;11.602;2023-02-16T07:20:46;7.53;;;5.23;;
990;SDS011;484;48.128;11.602;2023-02-16T07:23:31;4.97;;;4.03;;
990;SDS011;484;48.128;11.602;2023-02-16T07:26:17;4.57;;;3.30;;
990;SDS011;484;48.128;11.602;2023-02-16T07:29:02;4.73;;;4.23;;
990;SDS011;484;48.128;11.602;2023-02-16T07:31:49;8.03;;;4.10;;
990;SDS011;484;48.128;11.602;2023-02-16T07:34:34;2.50;;;2.30;;
990;SDS011;484;48.128;11.602;2023-02-16T07:37:19;12.47;;;5.67;;
990;SDS011;484;48.128;11.602;2023-02-16T07:40:05;3.40;;;3.03;;
990;SDS011;484;48.128;11.602;2023-02-16T07:42:52;3.90;;;3.60;;
990;SDS011;484;48.128;11.602;2023-02-16T07:45:37;5.60;;;3.47;;
990;SDS011;484;48.128;11.602;2023-02-16T07:48:23;6.80;;;3.63;;
990;SDS011;484;48.128;11.602;2023-02-16T07:51:08;5.07;;;4.00;;
990;SDS011;484;48.128;11.602;2023-02-16T07:53:54;4.10;;;2.93;;
990;SDS011;484;48.128;11.602;2023-02-16T07:56:39;6.13;;;4.37;;
990;SDS011;484;48.128;11.602;2023-02-16T07:59:24;4.37;;;3.67;;
990;SDS011;484;48.128;11.602;2023-02-16T08:02:13;3.43;;;3.13;;
990;SDS011;484;48.128;11.602;2023-02-16T08:05:00;9.10;;;3.60;;
990;SDS011;484;48.128;11.602;2023-02-16T08:07:45;4.93;;;4.43;;
990;SDS011;484;48.128;11.602;2023-02-16T08:10:34;5.50;;;4.33;;
990;SDS011;484;48.128;11.602;2023-02-16T08:13:19;6.53;;;5.77;;
990;SDS011;484;48.128;11.602;2023-02-16T08:16:08;4.13;;;3.73;;
990;SDS011;484;48.128;11.602;2023-02-16T08:18:54;6.33;;;3.43;;
990;SDS011;484;48.128;11.602;2023-02-16T08:21:42;10.30;;;3.83;;
990;SDS011;484;48.128;11.602;2023-02-16T08:24:31;5.67;;;4.60;;
990;SDS011;484;48.128;11.602;2023-02-16T08:27:24;3.10;;;2.73;;
990;SDS011;484;48.128;11.602;2023-02-16T08:30:10;3.83;;;3.43;;
990;SDS011;484;48.128;11.602;2023-02-16T08:32:56;4.83;;;3.53;;
990;SDS011;484;48.128;11.602;2023-02-16T08:35:43;6.00;;;4.27;;
990;SDS011;484;48.128;11.602;2023-02-16T08:38:30;4.23;;;3.83;;
990;SDS011;484;48.128;11.602;2023-02-16T08:41:17;4.00;;;3.70;;
990;SDS011;484;48.128;11.602;2023-02-16T08:44:03;4.80;;;3.63;;
990;SDS011;484;48.128;11.602;2023-02-16T08:46:50;6.43;;;4.07;;
990;SDS011;484;48.128;11.602;2023-02-16T08:49:36;10.70;;;4.30;;
990;SDS011;484;48.128;11.602;2023-02-16T08:52:21;17.67;;;5.43;;
990;SDS011;484;48.128;11.602;2023-02-16T08:55:08;6.33;;;3.40;;
990;SDS011;484;48.128;11.602;2023-02-16T08:57:54;5.70;;;3.80;;
990;SDS011;484;48.128;11.602;2023-02-16T09:00:40;4.50;;;4.07;;
990;SDS011;484;48.128;11.602;2023-02-16T09:03:26;3.90;;;3.60;;
990;SDS011;484;48.128;11.602;2023-02-16T09:06:12;3.67;;;3.30;;
990;SDS011;484;48.128;11.602;2023-02-16T09:08:58;22.50;;;3.80;;
990;SDS011;484;48.128;11.602;2023-02-16T09:11:45;5.47;;;5.03;;
990;SDS011;484;48.128;11.602;2023-02-16T09:14:30;5.53;;;4.40;;
990;SDS011;484;48.128;11.602;2023-02-16T09:17:17;4.90;;;3.80;;
990;SDS011;484;48.128;11.602;2023-02-16T09:20:03;5.80;;;4.03;;
990;SDS011;484;48.128;11.602;2023-02-16T09:22:50;4.90;;;3.70;;
990;SDS011;484;48.128;11.602;2023-02-16T09:25:37;4.10;;;3.70;;
990;SDS011;484;48.128;11.602;2023-02-16T09:28:25;5.80;;;3.80;;
990;SDS011;484;48.128;11.602;2023-02-16T09:31:11;5.53;;;3.73;;
990;SDS011;484;48.128;11.602;2023-02-16T09:33:59;5.33;;;4.83;;
990;SDS011;484;48.128;11.602;2023-02-16T09:36:46;12.00;;;5.57;;
990;SDS011;484;48.128;11.602;2023-02-16T09:39:31;4.77;;;3.80;;
990;SDS011;484;48.128;11.602;2023-02-16T09:42:20;6.87;;;4.70;;
990;SDS011;484;48.128;11.602;2023-02-16T09:45:12;6.70;;;5.07;;
990;SDS011;484;48.128;11.602;2023-02-16T09:47:59;5.60;;;4.70;;
990;SDS011;484;48.128;11.602;2023-02-16T09:50:45;9.00;;;6.90;;
990;SDS011;484;48.128;11.602;2023-02-16T09:53:32;4.90;;;4.37;;
990;SDS011;484;48.128;11.602;2023-02-16T09:56:21;6.47;;;4.50;;
990;SDS011;484;48.128;11.602;2023-02-16T09:59:12;4.47;;;4.03;;
990;SDS011;484;48.128;11.602;2023-02-16T10:02:18;5.60;;;4.10;;
990;SDS011;484;48.128;11.602;2023-02-16T10:05:13;4.67;;;4.20;;
990;SDS011;484;48.128;11.602;2023-02-16T10:08:02;4.93;;;4.43;;
990;SDS011;484;48.128;11.602;2023-02-16T10:10:52;7.00;;;4.67;;
990;SDS011;484;48.128;11.602;2023-02-16T10:13:46;7.17;;;4.90;;
990;SDS011;484;48.128;11.602;2023-02-16T10:16:38;3.77;;;3.47;;
990;SDS011;484;48.128;11.602;2023-02-16T10:19:28;5.50;;;3.80;;
990;SDS011;484;48.128;11.602;2023-02-16T10:22:19;6.30;;;3.93;;
990;SDS011;484;48.128;11.602;2023-02-16T10:25:09;9.63;;;4.20;;
990;SDS011;484;48.128;11.602;2023-02-16T10:31:00;6.67;;;4.77;;
990;SDS011;484;48.128;11.602;2023-02-16T10:33:52;6.50;;;4.83;;
990;SDS011;484;48.128;11.602;2023-02-16T10:37:01;7.00;;;5.43;;
990;SDS011;484;48.128;11.602;2023-02-16T10:39:54;5.47;;;4.57;;
990;SDS011;484;48.128;11.602;2023-02-16T10:42:46;5.43;;;4.50;;
990;SDS011;484;48.128;11.602;2023-02-16T10:45:37;6.30;;;4.47;;
990;SDS011;484;48.128;11.602;2023-02-16T10:48:27;6.97;;;4.90;;
990;SDS011;484;48.128;11.602;2023-02-16T10:51:13;8.10;;;4.80;;
990;SDS011;484;48.128;11.602;2023-02-16T10:54:02;4.50;;;3.13;;
990;SDS011;484;48.128;11.602;2023-02-16T10:56:49;3.47;;;3.17;;
990;SDS011;484;48.128;11.602;2023-02-16T10:59:37;7.37;;;4.00;;
990;SDS011;484;48.128;11.602;2023-02-16T11:05:35;4.13;;;3.67;;
990;SDS011;484;48.128;11.602;2023-02-16T11:08:21;5.43;;;3.70;;
990;SDS011;484;48.128;11.602;2023-02-16T11:11:09;3.87;;;3.50;;
990;SDS011;484;48.128;11.602;2023-02-16T11:14:03;4.57;;;3.70;;
990;SDS011;484;48.128;11.602;2023-02-16T11:19:52;4.40;;;3.57;;
990;SDS011;484;48.128;11.602;2023-02-16T11:22:39;3.43;;;3.13;;
990;SDS011;484;48.128;11.602;2023-02-16T11:25:25;3.57;;;3.00;;
990;SDS011;484;48.128;11.602;2023-02-16T11:28:12;3.80;;;3.43;;
990;SDS011;484;48.128;11.602;2023-02-16T11:31:14;5.43;;;3.70;;
990;SDS011;484;48.128;11.602;2023-02-16T11:34:01;5.00;;;3.43;;
990;SDS011;484;48.128;11.602;2023-02-16T11:36:48;3.87;;;3.30;;
990;SDS011;484;48.128;11.602;2023-02-16T11:39:35;4.13;;;3.43;;
990;SDS011;484;48.128;11.602;2023-02-16T11:42:24;3.63;;;3.20;;
990;SDS011;484;48.128;11.602;2023-02-16T11:45:21;8.00;;;4.83;;
990;SDS011;484;48.128;11.602;2023-02-16T11:48:10;4.90;;;3.97;;
990;SDS011;484;48.128;11.602;2023-02-16T11:50:58;5.80;;;4.30;;
990;SDS011;484;48.128;11.602;2023-02-16T11:53:46;7.10;;;3.93;;
990;SDS011;484;48.128;11.602;2023-02-16T11:56:44;6.80;;;4.07;;
990;SDS011;484;48.128;11.602;2023-02-16T11:59:45;4.60;;;4.17;;
990;SDS011;484;48.128;11.602;2023-02-16T12:02:35;4.70;;;2.47;;
990;SDS011;484;48.128;11.602;2023-02-16T12:05:43;4.00;;;3.00;;
990;SDS011;484;48.128;11.602;2023-02-16T12:08:47;2.73;;;2.50;;
990;SDS011;484;48.128;11.602;2023-02-16T12:12:05;5.17;;;3.33;;
990;SDS011;484;48.128;11.602;2023-02-16T12:14:59;2.60;;;2.13;;
990;SDS011;484;48.128;11.602;2023-02-16T12:18:11;3.60;;;2.60;;
990;SDS011;484;48.128;11.602;2023-02-16T12:21:09;3.40;;;3.10;;
990;SDS011;484;48.128;11.602;2023-02-16T12:24:03;7.70;;;2.77;;
990;SDS011;484;48.128;11.602;2023-02-16T12:26:55;5.23;;;3.17;;
990;SDS011;484;48.128;11.602;2023-02-16T12:29:42;5.20;;;2.97;;
990;SDS011;484;48.128;11.602;2023-02-16T12:39:09;2.67;;;2.27;;
990;SDS011;484;48.128;11.602;2023-02-16T12:42:17;4.07;;;2.10;;
990;SDS011;484;48.128;11.602;2023-02-16T12:45:15;3.10;;;2.90;;
990;SDS011;484;48.128;11.602;2023-02-16T12:48:04;3.60;;;2.40;;
990;SDS011;484;48.128;11.602;2023-02-16T12:50:58;1.97;;;1.80;;
990;SDS011;484;48.128;11.602;2023-02-16T12:53:51;4.13;;;3.73;;
990;SDS011;484;48.128;11.602;2023-02-16T12:56:42;3.87;;;3.20;;
990;SDS011;484;48.128;11.602;2023-02-16T12:59:32;3.77;;;3.43;;
990;SDS011;484;48.128;11.602;2023-02-16T13:02:21;3.63;;;3.17;;
990;SDS011;484;48.128;11.602;2023-02-16T13:05:09;4.27;;;3.60;;
990;SDS011;484;48.128;11.602;2023-02-16T13:07:59;6.30;;;3.23;;
990;SDS011;484;48.128;11.602;2023-02-16T13:10:53;5.60;;;3.60;;
990;SDS011;484;48.128;11.602;2023-02-16T13:13:41;4.43;;;3.10;;
990;SDS011;484;48.128;11.602;2023-02-16T13:16:30;4.27;;;2.50;;
990;SDS011;484;48.128;11.602;2023-02-16T13:19:20;3.53;;;2.40;;
990;SDS011;484;48.128;11.602;2023-02-16T13:22:11;4.10;;;2.30;;
990;SDS011;484;48.128;11.602;2023-02-16T13:25:07;6.00;;;2.57;;
990;SDS011;484;48.128;11.602;2023-02-16T13:28:09;4.60;;;2.70;;
990;SDS011;484;48.128;11.602;2023-02-16T13:31:09;4.53;;;2.40;;
990;SDS011;484;48.128;11.602;2023-02-16T13:37:30;4.50;;;4.10;;
990;SDS011;484;48.128;11.602;2023-02-16T13:40:44;5.40;;;2.90;;
990;SDS011;484;48.128;11.602;2023-02-16T13:43:54;5.00;;;3.80;;
990;SDS011;484;48.128;11.602;2023-02-16T13:46:41;4.10;;;3.07;;
990;SDS011;484;48.128;11.602;2023-02-16T13:49:30;3.27;;;2.70;;
990;SDS011;484;48.128;11.602;2023-02-16T13:52:26;3.30;;;3.00;;
990;SDS011;484;48.128;11.602;2023-02-16T13:55:20;3.63;;;3.23;;
990;SDS011;484;48.128;11.602;2023-02-16T13:58:10;5.13;;;2.83;;
990;SDS011;484;48.128;11.602;2023-02-16T14:07:40;6.30;;;2.93;;
990;SDS011;484;48.128;11.602;2023-02-16T14:10:36;5.87;;;2.87;;
990;SDS011;484;48.128;11.602;2023-02-16T14:13:49;3.37;;;2.83;;
990;SDS011;484;48.128;11.602;2023-02-16T14:16:36;4.60;;;3.53;;
990;SDS011;484;48.128;11.602;2023-02-16T14:19:22;3.43;;;2.50;;
990;SDS011;484;48.128;11.602;2023-02-16T14:22:08;3.70;;;2.70;;
990;SDS011;484;48.128;11.602;2023-02-16T14:24:56;4.77;;;2.67;;
990;SDS011;484;48.128;11.602;2023-02-16T14:27:45;10.00;;;3.77;;
990;SDS011;484;48.128;11.602;2023-02-16T14:30:32;2.53;;;2.30;;
990;SDS011;484;48.128;11.602;2023-02-16T14:33:21;3.83;;;2.87;;
990;SDS011;484;48.128;11.602;2023-02-16T14:36:12;7.20;;;2.60;;
990;SDS011;484;48.128;11.602;2023-02-16T14:38:59;12.67;;;6.70;;
990;SDS011;484;48.128;11.602;2023-02-16T14:41:46;6.53;;;3.80;;
990;SDS011;484;48.128;11.602;2023-02-16T14:44:36;3.10;;;2.10;;
990;SDS011;484;48.128;11.602;2023-02-16T14:47:31;1.40;;;1.20;;
990;SDS011;484;48.128;11.602;2023-02-16T14:50:25;3.80;;;2.20;;
990;SDS011;484;48.128;11.602;2023-02-16T14:53:32;4.37;;;3.13;;
990;SDS011;484;48.128;11.602;2023-02-16T14:56:43;3.07;;;2.47;;
990;SDS011;484;48.128;11.602;2023-02-16T14:59:30;4.57;;;2.40;;
990;SDS011;484;48.128;11.602;2023-02-16T15:02:27;3.03;;;2.83;;
990;SDS011;484;48.128;11.602;2023-02-16T15:05:14;3.80;;;2.43;;
990;SDS011;484;48.128;11.602;2023-02-16T15:08:03;3.67;;;3.00;;
990;SDS011;484;48.128;11.602;2023-02-16T15:10:53;4.70;;;2.80;;
990;SDS011;484;48.128;11.602;2023-02-16T15:13:39;2.33;;;1.83;;
990;SDS011;484;48.128;11.602;2023-02-16T15:16:25;3.17;;;2.60;;
990;SDS011;484;48.128;11.602;2023-02-16T15:19:14;3.20;;;2.30;;
990;SDS011;484;48.128;11.602;2023-02-16T15:22:16;2.20;;;2.10;;
990;SDS011;484;48.128;11.602;2023-02-16T15:25:14;3.93;;;2.93;;
990;SDS011;484;48.128;11.602;2023-02-16T15:28:14;2.93;;;2.53;;
990;SDS011;484;48.128;11.602;2023-02-16T15:31:02;8.27;;;2.60;;
990;SDS011;484;48.128;11.602;2023-02-16T15:33:53;2.10;;;1.80;;
990;SDS011;484;48.128;11.602;2023-02-16T15:36:41;3.50;;;3.20;;
990;SDS011;484;48.128;11.602;2023-02-16T15:39:28;5.50;;;4.40;;
990;SDS011;484;48.128;11.602;2023-02-16T15:42:17;3.33;;;2.63;;
990;SDS011;484;48.128;11.602;2023-02-16T15:45:16;2.30;;;2.10;;
990;SDS011;484;48.128;11.602;2023-02-16T15:51:14;22.23;;;7.50;;
990;SDS011;484;48.128;11.602;2023-02-16T15:54:00;8.43;;;3.87;;
990;SDS011;484;48.128;11.602;2023-02-16T15:56:46;6.50;;;3.37;;
990;SDS011;484;48.128;11.602;2023-02-16T15:59:34;4.43;;;3.87;;
990;SDS011;484;48.128;11.602;2023-02-16T16:02:23;4.30;;;3.90;;
990;SDS011;484;48.128;11.602;2023-02-16T16:05:19;3.47;;;3.00;;
990;SDS011;484;48.128;11.602;2023-02-16T16:08:06;2.73;;;2.53;;
990;SDS011;484;48.128;11.602;2023-02-16T16:10:52;2.43;;;2.23;;
990;SDS011;484;48.128;11.602;2023-02-16T16:13:38;4.00;;;2.60;;
990;SDS011;484;48.128;11.602;2023-02-16T16:16:25;2.57;;;1.87;;
990;SDS011;484;48.128;11.602;2023-02-16T16:19:13;4.60;;;2.60;;
990;SDS011;484;48.128;11.602;2023-02-16T16:21:59;7.57;;;3.63;;
990;SDS011;484;48.128;11.602;2023-02-16T16:24:45;3.30;;;3.00;;
990;SDS011;484;48.128;11.602;2023-02-16T16:27:32;3.53;;;2.40;;
990;SDS011;484;48.128;11.602;2023-02-16T16:30:26;5.70;;;2.07;;
990;SDS011;484;48.128;11.602;2023-02-16T16:33:14;9.93;;;2.00;;
990;SDS011;484;48.128;11.602;2023-02-16T16:36:02;2.80;;;2.60;;
990;SDS011;484;48.128;11.602;2023-02-16T16:39:06;4.20;;;2.83;;
990;SDS011;484;48.128;11.602;2023-02-16T16:45:06;4.30;;;3.90;;
990;SDS011;484;48.128;11.602;2023-02-16T16:48:19;4.17;;;3.50;;
990;SDS011;484;48.128;11.602;2023-02-16T16:51:10;6.80;;;3.93;;
990;SDS011;484;48.128;11.602;2023-02-16T16:53:58;5.40;;;4.90;;
990;SDS011;484;48.128;11.602;2023-02-16T16:56:44;13.20;;;4.37;;
990;SDS011;484;48.128;11.602;2023-02-16T16:59:29;5.13;;;4.50;;
990;SDS011;484;48.128;11.602;2023-02-16T17:02:15;4.50;;;3.13;;
990;SDS011;484;48.128;11.602;2023-02-16T17:05:02;3.63;;;3.33;;
990;SDS011;484;48.128;11.602;2023-02-16T17:07:48;4.23;;;3.63;;
990;SDS011;484;48.128;11.602;2023-02-16T17:10:34;5.63;;;3.80;;
990;SDS011;484;48.128;11.602;2023-02-16T17:13:21;4.23;;;3.80;;
990;SDS011;484;48.128;11.602;2023-02-16T17:16:07;6.00;;;3.80;;
990;SDS011;484;48.128;11.602;2023-02-16T17:18:56;3.20;;;2.63;;
990;SDS011;484;48.128;11.602;2023-02-16T17:21:43;13.93;;;3.43;;
990;SDS011;484;48.128;11.602;2023-02-16T17:24:29;4.83;;;3.67;;
990;SDS011;484;48.128;11.602;2023-02-16T17:27:16;5.73;;;4.37;;
990;SDS011;484;48.128;11.602;2023-02-16T17:30:02;3.67;;;3.33;;
990;SDS011;484;48.128;11.602;2023-02-16T17:32:48;4.37;;;3.27;;
990;SDS011;484;48.128;11.602;2023-02-16T17:35:36;5.30;;;3.50;;
990;SDS011;484;48.128;11.602;2023-02-16T17:38:23;6.60;;;3.70;;
990;SDS011;484;48.128;11.602;2023-02-16T17:41:12;3.03;;;2.83;;
990;SDS011;484;48.128;11.602;2023-02-16T17:44:01;2.53;;;2.30;;
990;SDS011;484;48.128;11.602;2023-02-16T17:46:47;3.90;;;2.60;;
990;SDS011;484;48.128;11.602;2023-02-16T17:49:33;3.33;;;3.03;;
990;SDS011;484;48.128;11.602;2023-02-16T17:52:18;2.83;;;2.63;;
990;SDS011;484;48.128;11.602;2023-02-16T17:55:05;5.33;;;3.47;;
990;SDS011;484;48.128;11.602;2023-02-16T17:57:52;8.30;;;3.87;;
990;SDS011;484;48.128;11.602;2023-02-16T18:00:38;5.33;;;4.53;;
990;SDS011;484;48.128;11.602;2023-02-16T18:03:25;3.93;;;3.03;;
990;SDS011;484;48.128;11.602;2023-02-16T18:06:10;4.47;;;3.27;;
990;SDS011;484;48.128;11.602;2023-02-16T18:08:56;2.93;;;2.73;;
990;SDS011;484;48.128;11.602;2023-02-16T18:11:43;3.73;;;2.80;;
990;SDS011;484;48.128;11.602;2023-02-16T18:14:28;6.00;;;4.10;;
990;SDS011;484;48.128;11.602;2023-02-16T18:17:13;6.47;;;5.00;;
990;SDS011;484;48.128;11.602;2023-02-16T18:19:59;4.57;;;2.80;;
990;SDS011;484;48.128;11.602;2023-02-16T18:22:47;4.03;;;3.50;;
990;SDS011;484;48.128;11.602;2023-02-16T18:25:32;4.17;;;3.50;;